Terminal Aerodrome Forecast
Issued by NWS Jackson, MS

Home | Current Version | Previous Version | Text Only | Print | Product List | Glossary On
Versions: 1 2 3 4 5 6 7 8 9 10 11 12 13 14 15 16
087
FTUS44 KMEG 280106 AAA
TAFTUP
TAF AMD
KTUP 280106Z 2801/2824 13007KT P6SM SCT012 OVC080
      TEMPO 2801/2805 BKN012
     FM280500 15010G15KT P6SM VCSH SCT006 OVC010 WS020/21040KT
      TEMPO 2810/2814 4SM TSRA BR OVC006CB
     FM281800 17012G19KT P6SM BKN020 BKN035=

USA.gov is the U.S. government's official web portal to all federal, state and local government web resources and services.